Time;durP1;ratioP1;P1;durP2;ratioP2;P2;SDS_P1;SDS_P2;PMS_P1;PMS_P2;Temp;Humidity;BMP_temperature;BMP_pressure;BME280_temperature;BME280_humidity;BME280_pressure;Samples;Min_cycle;Max_cycle;Signal;HPM_P1;HPM_P2
2023/05/07 00:00:10;;;;;;;135.65;11.60;;;;;;;;;;5042203;28;20061;-74
2023/05/07 00:02:37;;;;;;;108.47;12.55;;;;;;;;;;5035806;28;20044;-74
2023/05/07 00:05:03;;;;;;;94.15;11.00;;;;;;;;;;5036636;28;20068;-74
2023/05/07 00:07:28;;;;;;;125.88;11.43;;;;;;;;;;5035744;28;20065;-73
2023/05/07 00:09:53;;;;;;;88.90;10.43;;;;;;;;;;5033292;28;20112;-73
2023/05/07 00:12:19;;;;;;;55.30;10.98;;;;;;;;;;5041396;28;20025;-74
2023/05/07 00:14:45;;;;;;;36.30;10.98;;;;;;;;;;5055171;28;20033;-73
2023/05/07 00:17:10;;;;;;;31.20;11.50;;;;;;;;;;5034294;28;20033;-73
2023/05/07 00:19:36;;;;;;;42.88;11.18;;;;;;;;;;5041564;28;20130;-74
2023/05/07 00:22:01;;;;;;;38.85;12.18;;;;;;;;;;5042880;28;20091;-73
2023/05/07 00:24:26;;;;;;;43.38;11.50;;;;;;;;;;5040102;28;20029;-73
2023/05/07 00:26:52;;;;;;;190.02;16.15;;;;;;;;;;5033480;28;20428;-75
2023/05/07 00:29:18;;;;;;;128.20;10.35;;;;;;;;;;5040797;28;20037;-74
2023/05/07 00:31:43;;;;;;;121.63;11.15;;;;;;;;;;5037297;28;20405;-74
2023/05/07 00:34:08;;;;;;;56.20;9.85;;;;;;;;;;5047708;28;20106;-73
2023/05/07 00:36:34;;;;;;;154.48;13.25;;;;;;;;;;5034223;28;20037;-73
2023/05/07 00:39:01;;;;;;;72.75;10.82;;;;;;;;;;5041767;28;20106;-73
2023/05/07 00:41:27;;;;;;;57.75;9.90;;;;;;;;;;5037194;28;20048;-73
2023/05/07 00:43:52;;;;;;;65.60;10.23;;;;;;;;;;5038734;28;20049;-73
2023/05/07 00:46:20;;;;;;;106.65;10.82;;;;;;;;;;5036652;28;20041;-73
2023/05/07 00:48:45;;;;;;;64.90;10.82;;;;;;;;;;5030925;28;20397;-76
2023/05/07 00:51:11;;;;;;;77.25;9.40;;;;;;;;;;5036648;28;20040;-73
2023/05/07 00:53:37;;;;;;;106.30;10.57;;;;;;;;;;5041058;28;20049;-75
2023/05/07 00:56:02;;;;;;;81.10;10.20;;;;;;;;;;5043095;28;20538;-75
2023/05/07 00:58:28;;;;;;;127.78;11.45;;;;;;;;;;5056542;28;20045;-74
2023/05/07 01:00:53;;;;;;;57.30;9.23;;;;;;;;;;5037993;28;20167;-77
2023/05/07 01:03:20;;;;;;;76.60;10.02;;;;;;;;;;5037902;28;20433;-72
2023/05/07 01:05:48;;;;;;;35.72;7.97;;;;;;;;;;5037852;28;20067;-73
2023/05/07 01:08:14;;;;;;;43.13;8.80;;;;;;;;;;5039563;28;20045;-74
2023/05/07 01:10:42;;;;;;;44.22;8.98;;;;;;;;;;5037686;28;20060;-74
2023/05/07 01:13:09;;;;;;;56.30;8.90;;;;;;;;;;5059102;28;20439;-73
2023/05/07 01:15:35;;;;;;;71.53;9.70;;;;;;;;;;5033402;28;20499;-76
2023/05/07 01:18:00;;;;;;;38.33;8.18;;;;;;;;;;5042850;28;20037;-73
2023/05/07 01:20:27;;;;;;;26.38;7.78;;;;;;;;;;5062904;28;20060;-74
2023/05/07 01:22:53;;;;;;;18.77;7.90;;;;;;;;;;5039445;28;20040;-74
2023/05/07 01:25:19;;;;;;;30.92;7.38;;;;;;;;;;5045742;28;20400;-73
2023/05/07 01:27:44;;;;;;;23.92;7.25;;;;;;;;;;5052222;28;20039;-72
2023/05/07 01:30:10;;;;;;;26.58;7.28;;;;;;;;;;5043095;28;20508;-73
2023/05/07 01:32:41;;;;;;;18.90;6.55;;;;;;;;;;5037038;28;20033;-74
2023/05/07 01:35:10;;;;;;;33.63;7.03;;;;;;;;;;5066800;28;20033;-75
2023/05/07 01:37:35;;;;;;;14.48;6.47;;;;;;;;;;5034067;28;20048;-74
2023/05/07 01:40:01;;;;;;;15.45;5.65;;;;;;;;;;5064402;28;20026;-74
2023/05/07 01:42:28;;;;;;;37.58;6.15;;;;;;;;;;5034590;28;20043;-76
2023/05/07 01:44:54;;;;;;;55.60;6.40;;;;;;;;;;5023305;28;20366;-73
2023/05/07 01:47:20;;;;;;;35.33;5.47;;;;;;;;;;5042834;28;20036;-73
2023/05/07 01:49:46;;;;;;;31.35;5.18;;;;;;;;;;5041469;28;20045;-73
2023/05/07 01:52:12;;;;;;;36.22;5.38;;;;;;;;;;5047528;28;20401;-77
2023/05/07 01:54:38;;;;;;;21.30;5.40;;;;;;;;;;5033440;28;20033;-74
2023/05/07 01:57:03;;;;;;;26.30;5.50;;;;;;;;;;5052851;28;20040;-74
2023/05/07 01:59:28;;;;;;;18.15;5.10;;;;;;;;;;5042444;28;20029;-73
2023/05/07 02:01:54;;;;;;;13.85;4.53;;;;;;;;;;5040198;28;20124;-73
2023/05/07 02:04:19;;;;;;;15.30;4.70;;;;;;;;;;5042705;28;20041;-73
2023/05/07 02:06:45;;;;;;;9.80;4.07;;;;;;;;;;5049148;28;20041;-74
2023/05/07 02:09:10;;;;;;;10.43;4.10;;;;;;;;;;5039145;28;20431;-73
2023/05/07 02:11:36;;;;;;;26.58;4.32;;;;;;;;;;5040448;28;20071;-73
2023/05/07 02:14:01;;;;;;;19.33;3.83;;;;;;;;;;5041117;28;20103;-73
2023/05/07 02:16:26;;;;;;;16.30;4.40;;;;;;;;;;5037138;28;20033;-74
2023/05/07 02:18:52;;;;;;;12.90;4.20;;;;;;;;;;5035695;28;20041;-74
2023/05/07 02:21:17;;;;;;;6.05;4.00;;;;;;;;;;5045501;28;20045;-73
2023/05/07 02:23:43;;;;;;;20.17;4.28;;;;;;;;;;5036306;28;20043;-74
2023/05/07 02:26:08;;;;;;;11.05;3.47;;;;;;;;;;5042226;28;20037;-73
2023/05/07 02:28:35;;;;;;;21.42;3.15;;;;;;;;;;5010484;28;20045;-76
2023/05/07 02:31:02;;;;;;;27.58;3.50;;;;;;;;;;5041016;28;20064;-74
2023/05/07 02:33:28;;;;;;;13.57;3.42;;;;;;;;;;5040913;28;20256;-74
2023/05/07 02:35:53;;;;;;;22.75;3.45;;;;;;;;;;5050974;28;20068;-73
2023/05/07 02:38:19;;;;;;;49.40;4.05;;;;;;;;;;5036427;28;20105;-73
2023/05/07 02:40:44;;;;;;;28.63;3.20;;;;;;;;;;5045412;28;20048;-74
2023/05/07 02:43:10;;;;;;;23.40;3.80;;;;;;;;;;5046303;28;20041;-73
2023/05/07 02:45:37;;;;;;;5.43;3.75;;;;;;;;;;5046585;28;20120;-73
2023/05/07 02:48:02;;;;;;;21.52;3.28;;;;;;;;;;5038460;28;20049;-73
2023/05/07 02:50:28;;;;;;;63.00;4.57;;;;;;;;;;5038481;28;20048;-73
2023/05/07 02:52:53;;;;;;;32.55;3.88;;;;;;;;;;5035889;28;20040;-76
2023/05/07 02:55:19;;;;;;;39.45;3.47;;;;;;;;;;5037558;28;20571;-72
2023/05/07 02:57:44;;;;;;;83.05;4.53;;;;;;;;;;5046342;28;20041;-73
2023/05/07 03:00:14;;;;;;;86.68;4.35;;;;;;;;;;5035377;28;20056;-73
2023/05/07 03:02:40;;;;;;;56.28;3.35;;;;;;;;;;5035364;28;20037;-75
2023/05/07 03:05:06;;;;;;;54.70;3.55;;;;;;;;;;5029360;28;20401;-73
2023/05/07 03:07:31;;;;;;;52.63;3.20;;;;;;;;;;5046222;28;20044;-73
2023/05/07 03:09:57;;;;;;;59.75;3.28;;;;;;;;;;5057911;28;20095;-72
2023/05/07 03:12:22;;;;;;;67.22;3.60;;;;;;;;;;5047920;28;20052;-73
2023/05/07 03:14:47;;;;;;;64.28;3.60;;;;;;;;;;5043726;28;20036;-75
2023/05/07 03:17:13;;;;;;;35.22;2.80;;;;;;;;;;5038741;28;20447;-74
2023/05/07 03:19:38;;;;;;;27.90;2.85;;;;;;;;;;5045359;28;20131;-73
2023/05/07 03:22:04;;;;;;;13.40;2.72;;;;;;;;;;5038314;28;20123;-73
2023/05/07 03:24:29;;;;;;;10.27;2.70;;;;;;;;;;5037261;28;20033;-73
2023/05/07 03:26:54;;;;;;;51.70;3.15;;;;;;;;;;5039003;28;20048;-73
2023/05/07 03:29:20;;;;;;;66.05;3.17;;;;;;;;;;5041384;28;20079;-73
2023/05/07 03:31:46;;;;;;;48.83;2.53;;;;;;;;;;5033416;28;20557;-73
2023/05/07 03:34:11;;;;;;;13.43;2.03;;;;;;;;;;5040233;28;20568;-73
2023/05/07 03:36:36;;;;;;;36.63;2.25;;;;;;;;;;5032431;28;20038;-73
2023/05/07 03:39:02;;;;;;;41.55;2.17;;;;;;;;;;5035636;28;20115;-74
2023/05/07 03:41:27;;;;;;;15.07;1.95;;;;;;;;;;5031920;28;20041;-73
2023/05/07 03:43:52;;;;;;;25.45;2.00;;;;;;;;;;5043241;28;20041;-74
2023/05/07 03:46:18;;;;;;;15.55;1.75;;;;;;;;;;5032585;28;20076;-72
2023/05/07 03:48:43;;;;;;;9.88;1.83;;;;;;;;;;5029449;28;20501;-73
2023/05/07 03:51:09;;;;;;;11.10;1.67;;;;;;;;;;5033368;28;20044;-73
2023/05/07 03:53:35;;;;;;;31.30;2.00;;;;;;;;;;5040846;28;20040;-74
2023/05/07 03:56:00;;;;;;;19.88;2.03;;;;;;;;;;5033473;28;20052;-72
2023/05/07 03:58:25;;;;;;;14.15;1.58;;;;;;;;;;5039744;28;20037;-75
2023/05/07 04:00:51;;;;;;;18.08;1.88;;;;;;;;;;5039719;28;20041;-73
2023/05/07 04:03:17;;;;;;;22.45;1.88;;;;;;;;;;5033999;28;20481;-76
2023/05/07 04:05:42;;;;;;;20.17;1.77;;;;;;;;;;5032011;28;20381;-74
2023/05/07 04:08:07;;;;;;;9.43;1.95;;;;;;;;;;5041819;28;20048;-74
2023/05/07 04:10:33;;;;;;;13.60;1.75;;;;;;;;;;5042691;28;20044;-73
2023/05/07 04:12:58;;;;;;;5.07;1.77;;;;;;;;;;5047157;28;20041;-73
2023/05/07 04:15:23;;;;;;;3.80;2.20;;;;;;;;;;5065695;28;20043;-74
2023/05/07 04:17:49;;;;;;;7.10;2.00;;;;;;;;;;5041968;28;20465;-74
2023/05/07 04:20:16;;;;;;;4.22;2.17;;;;;;;;;;5037214;28;20535;-73
2023/05/07 04:22:41;;;;;;;9.60;1.80;;;;;;;;;;5032085;28;20370;-73
2023/05/07 04:25:08;;;;;;;6.60;1.80;;;;;;;;;;5035221;28;20120;-73
2023/05/07 04:27:34;;;;;;;2.55;1.48;;;;;;;;;;5036332;28;20083;-73
2023/05/07 04:30:00;;;;;;;2.90;1.52;;;;;;;;;;5033213;28;20068;-72
2023/05/07 04:32:26;;;;;;;3.63;1.70;;;;;;;;;;5041099;28;20048;-73
2023/05/07 04:34:51;;;;;;;5.25;1.23;;;;;;;;;;5017802;28;20385;-73
2023/05/07 04:37:17;;;;;;;7.45;1.50;;;;;;;;;;5038436;28;20095;-72
2023/05/07 04:39:42;;;;;;;5.78;1.30;;;;;;;;;;5035979;28;20038;-73
2023/05/07 04:42:08;;;;;;;8.98;1.33;;;;;;;;;;5037014;28;20785;-74
2023/05/07 04:44:34;;;;;;;2.40;1.20;;;;;;;;;;5032491;28;20493;-76
2023/05/07 04:47:00;;;;;;;3.25;1.50;;;;;;;;;;5032368;28;20041;-73
2023/05/07 04:49:25;;;;;;;38.65;2.75;;;;;;;;;;5039617;28;20373;-72
2023/05/07 04:51:51;;;;;;;16.55;1.48;;;;;;;;;;5050562;28;20473;-73
2023/05/07 04:54:16;;;;;;;13.23;1.40;;;;;;;;;;5046721;28;20045;-73
2023/05/07 04:56:41;;;;;;;12.63;1.60;;;;;;;;;;5036664;28;20497;-73
2023/05/07 04:59:07;;;;;;;10.13;1.80;;;;;;;;;;5033419;28;20139;-73
2023/05/07 05:01:32;;;;;;;17.55;1.77;;;;;;;;;;5031745;28;20489;-73
2023/05/07 05:03:59;;;;;;;4.53;1.60;;;;;;;;;;5042060;28;20041;-72
2023/05/07 05:06:25;;;;;;;8.05;1.30;;;;;;;;;;5052956;28;20046;-73
2023/05/07 05:08:50;;;;;;;8.57;1.10;;;;;;;;;;5038307;28;20494;-74
2023/05/07 05:11:16;;;;;;;5.10;1.30;;;;;;;;;;5035107;28;20473;-73
2023/05/07 05:13:41;;;;;;;16.80;1.90;;;;;;;;;;5038916;28;20041;-73
2023/05/07 05:16:06;;;;;;;17.08;1.42;;;;;;;;;;5038947;28;20040;-74
2023/05/07 05:18:32;;;;;;;11.18;1.40;;;;;;;;;;5036260;28;20040;-73
2023/05/07 05:20:57;;;;;;;33.72;1.83;;;;;;;;;;5048342;28;20128;-73
2023/05/07 05:23:23;;;;;;;38.90;1.75;;;;;;;;;;5046152;28;20048;-73
2023/05/07 05:25:48;;;;;;;25.55;1.25;;;;;;;;;;5043315;28;20047;-73
2023/05/07 05:28:14;;;;;;;18.15;1.40;;;;;;;;;;5046856;28;20041;-73
2023/05/07 05:30:39;;;;;;;24.55;1.40;;;;;;;;;;5030332;28;20436;-73
2023/05/07 05:33:05;;;;;;;22.45;1.50;;;;;;;;;;5032965;28;20032;-73
2023/05/07 05:35:30;;;;;;;12.80;1.23;;;;;;;;;;5044423;28;20112;-74
2023/05/07 05:37:56;;;;;;;16.95;1.48;;;;;;;;;;5035659;28;20040;-74
2023/05/07 05:40:21;;;;;;;13.38;1.38;;;;;;;;;;5034222;28;20038;-72
2023/05/07 05:42:46;;;;;;;2.97;1.00;;;;;;;;;;5042724;28;20124;-73
2023/05/07 05:45:12;;;;;;;10.27;1.45;;;;;;;;;;5038616;28;20049;-75
2023/05/07 05:47:37;;;;;;;1.83;1.10;;;;;;;;;;5040320;28;20103;-73
2023/05/07 05:50:03;;;;;;;6.38;1.30;;;;;;;;;;5035339;28;20052;-74
2023/05/07 05:52:28;;;;;;;3.20;1.30;;;;;;;;;;5043677;28;20045;-73
2023/05/07 05:54:54;;;;;;;10.88;1.17;;;;;;;;;;5047893;28;20051;-73
2023/05/07 05:57:20;;;;;;;15.40;1.25;;;;;;;;;;5033925;28;20041;-73
2023/05/07 05:59:46;;;;;;;2.92;1.20;;;;;;;;;;5035646;28;20026;-73
2023/05/07 06:02:11;;;;;;;5.82;1.23;;;;;;;;;;5036646;28;20083;-73
2023/05/07 06:04:37;;;;;;;3.83;1.40;;;;;;;;;;5038701;28;20026;-74
2023/05/07 06:07:02;;;;;;;1.98;1.00;;;;;;;;;;5044285;28;20041;-72
2023/05/07 06:09:27;;;;;;;4.97;1.35;;;;;;;;;;5039157;28;20428;-73
2023/05/07 06:11:53;;;;;;;6.78;1.83;;;;;;;;;;5039974;28;20043;-72
2023/05/07 06:14:18;;;;;;;1.85;1.00;;;;;;;;;;5061661;28;20067;-73
2023/05/07 06:16:44;;;;;;;5.28;1.13;;;;;;;;;;5048458;28;20057;-74
2023/05/07 06:19:09;;;;;;;2.88;1.67;;;;;;;;;;5045189;28;20039;-73
2023/05/07 06:21:34;;;;;;;5.30;1.35;;;;;;;;;;5039058;28;20427;-74
2023/05/07 06:24:00;;;;;;;6.00;1.60;;;;;;;;;;5042035;28;20063;-73
2023/05/07 06:26:25;;;;;;;7.53;1.40;;;;;;;;;;5038858;28;20021;-73
2023/05/07 06:28:51;;;;;;;3.65;1.40;;;;;;;;;;5038738;28;20405;-73
2023/05/07 06:31:21;;;;;;;5.45;1.45;;;;;;;;;;5041808;28;20090;-73
2023/05/07 06:33:48;;;;;;;5.20;1.48;;;;;;;;;;5039798;28;20068;-73
2023/05/07 06:36:13;;;;;;;1.98;1.10;;;;;;;;;;5026155;28;20127;-73
2023/05/07 06:38:39;;;;;;;2.67;1.50;;;;;;;;;;5049787;28;20496;-73
2023/05/07 06:41:05;;;;;;;3.60;1.15;;;;;;;;;;5036192;28;20041;-73
2023/05/07 06:43:31;;;;;;;4.28;1.50;;;;;;;;;;5037763;28;20052;-73
2023/05/07 06:45:56;;;;;;;4.03;1.40;;;;;;;;;;5036474;28;20029;-74
2023/05/07 06:48:22;;;;;;;3.00;1.40;;;;;;;;;;5035796;28;20033;-73
2023/05/07 06:50:47;;;;;;;5.03;1.50;;;;;;;;;;5035170;28;20056;-74
2023/05/07 06:53:12;;;;;;;3.08;1.38;;;;;;;;;;5034658;28;20041;-73
2023/05/07 06:55:38;;;;;;;7.28;1.42;;;;;;;;;;5036670;28;20049;-73
2023/05/07 06:58:03;;;;;;;3.33;1.20;;;;;;;;;;5037119;28;20040;-72
2023/05/07 07:00:29;;;;;;;2.90;1.00;;;;;;;;;;5055897;28;20037;-72
2023/05/07 07:02:55;;;;;;;3.13;1.30;;;;;;;;;;5034977;28;20045;-73
2023/05/07 07:05:20;;;;;;;3.40;1.50;;;;;;;;;;5032681;28;20072;-73
2023/05/07 07:07:52;;;;;;;2.70;1.30;;;;;;;;;;5044981;28;20069;-74
2023/05/07 07:10:21;;;;;;;2.88;1.33;;;;;;;;;;5035119;28;20046;-76
2023/05/07 07:12:47;;;;;;;4.82;1.48;;;;;;;;;;5037356;28;20056;-74
2023/05/07 07:15:13;;;;;;;5.25;1.35;;;;;;;;;;5047563;28;20477;-72
2023/05/07 07:17:38;;;;;;;3.08;1.30;;;;;;;;;;5043857;28;20047;-71
2023/05/07 07:20:05;;;;;;;3.33;1.30;;;;;;;;;;5048726;28;20045;-71
2023/05/07 07:22:30;;;;;;;4.43;1.42;;;;;;;;;;5025248;28;20042;-76
2023/05/07 07:24:56;;;;;;;3.67;1.25;;;;;;;;;;5035665;28;20040;-74
2023/05/07 07:27:21;;;;;;;3.78;1.48;;;;;;;;;;5039976;28;20037;-74
2023/05/07 07:29:47;;;;;;;3.60;1.40;;;;;;;;;;5037758;28;20427;-74
2023/05/07 07:32:12;;;;;;;4.95;1.80;;;;;;;;;;5033434;28;20072;-74
2023/05/07 07:34:37;;;;;;;4.63;1.40;;;;;;;;;;5044063;28;20420;-74
2023/05/07 07:37:05;;;;;;;3.63;1.42;;;;;;;;;;5042083;28;20082;-74
2023/05/07 07:39:32;;;;;;;3.88;1.48;;;;;;;;;;5039123;28;20033;-74
2023/05/07 07:41:57;;;;;;;4.70;1.60;;;;;;;;;;5038787;28;20120;-74
2023/05/07 07:44:22;;;;;;;3.45;1.58;;;;;;;;;;5032448;28;20120;-74
2023/05/07 07:46:48;;;;;;;4.57;1.55;;;;;;;;;;5034275;28;20045;-74
2023/05/07 07:49:14;;;;;;;6.10;1.85;;;;;;;;;;5042822;28;20044;-74
2023/05/07 07:51:39;;;;;;;6.95;1.75;;;;;;;;;;5049584;28;20116;-74
2023/05/07 07:54:05;;;;;;;5.90;1.77;;;;;;;;;;5032224;28;20116;-74
2023/05/07 07:56:33;;;;;;;5.75;1.58;;;;;;;;;;5026704;28;20125;-73
2023/05/07 07:58:58;;;;;;;4.15;1.40;;;;;;;;;;5035435;28;20037;-73
2023/05/07 08:01:23;;;;;;;4.53;1.40;;;;;;;;;;5035050;28;20082;-74
2023/05/07 08:03:49;;;;;;;5.90;1.60;;;;;;;;;;5032419;28;20048;-73
2023/05/07 08:06:15;;;;;;;4.63;1.70;;;;;;;;;;5031874;28;20110;-74
2023/05/07 08:08:40;;;;;;;4.40;1.58;;;;;;;;;;5032173;28;20045;-75
2023/05/07 08:11:05;;;;;;;5.72;1.63;;;;;;;;;;5036703;28;20064;-74
2023/05/07 08:13:31;;;;;;;4.47;1.70;;;;;;;;;;5032008;28;20055;-75
2023/05/07 08:15:56;;;;;;;4.95;1.80;;;;;;;;;;5032099;28;20041;-73
2023/05/07 08:18:24;;;;;;;4.18;1.42;;;;;;;;;;5034525;28;20064;-75
2023/05/07 08:20:49;;;;;;;4.25;1.88;;;;;;;;;;5041665;28;20080;-73
2023/05/07 08:23:15;;;;;;;4.70;1.65;;;;;;;;;;5044211;28;20138;-73
2023/05/07 08:25:42;;;;;;;3.55;1.40;;;;;;;;;;5031876;28;20045;-72
2023/05/07 08:28:07;;;;;;;5.03;1.63;;;;;;;;;;5038001;28;20120;-73
2023/05/07 08:30:32;;;;;;;4.63;1.58;;;;;;;;;;5024086;28;20108;-75
2023/05/07 08:32:58;;;;;;;5.63;1.48;;;;;;;;;;5033173;28;20104;-75
2023/05/07 08:35:25;;;;;;;3.92;1.55;;;;;;;;;;5030785;28;20041;-76
2023/05/07 08:37:50;;;;;;;4.88;1.48;;;;;;;;;;5034703;28;20037;-74
2023/05/07 08:40:16;;;;;;;3.08;1.33;;;;;;;;;;5030815;28;20055;-75
2023/05/07 08:42:41;;;;;;;7.00;1.70;;;;;;;;;;5030354;28;20048;-76
2023/05/07 08:45:10;;;;;;;6.03;1.92;;;;;;;;;;5029105;28;20030;-76
2023/05/07 08:47:43;;;;;;;5.50;2.22;;;;;;;;;;5030531;28;20428;-78
2023/05/07 08:50:08;;;;;;;5.43;2.33;;;;;;;;;;5027787;28;20037;-74
2023/05/07 08:52:35;;;;;;;7.30;2.25;;;;;;;;;;5038825;28;20121;-74
2023/05/07 08:55:02;;;;;;;8.00;2.50;;;;;;;;;;5057066;28;20055;-74
2023/05/07 08:57:28;;;;;;;5.60;2.00;;;;;;;;;;5064904;28;20124;-75
2023/05/07 08:59:53;;;;;;;4.68;2.00;;;;;;;;;;5042882;28;20109;-73
2023/05/07 09:02:18;;;;;;;5.82;2.40;;;;;;;;;;5037811;28;20115;-75
2023/05/07 09:04:44;;;;;;;7.57;2.42;;;;;;;;;;5026235;28;20064;-73
2023/05/07 09:07:09;;;;;;;5.05;2.65;;;;;;;;;;5037902;28;20045;-76
2023/05/07 09:09:35;;;;;;;5.07;2.30;;;;;;;;;;5034678;28;20133;-75
2023/05/07 09:12:01;;;;;;;6.20;2.55;;;;;;;;;;5033955;28;20087;-74
2023/05/07 09:14:27;;;;;;;6.40;2.38;;;;;;;;;;5031652;28;20041;-75
2023/05/07 09:16:53;;;;;;;6.55;2.80;;;;;;;;;;5041850;28;20036;-73
2023/05/07 09:19:26;;;;;;;9.10;2.70;;;;;;;;;;5044618;28;20048;-74
2023/05/07 09:22:02;;;;;;;6.20;2.85;;;;;;;;;;5051111;28;20064;-74
2023/05/07 09:24:34;;;;;;;8.18;3.10;;;;;;;;;;5034823;28;20085;-76
2023/05/07 09:27:01;;;;;;;4.32;2.70;;;;;;;;;;5031730;28;20049;-76
2023/05/07 09:29:28;;;;;;;5.03;2.38;;;;;;;;;;5039491;28;20039;-74
2023/05/07 09:31:54;;;;;;;5.50;2.70;;;;;;;;;;5037536;28;20044;-74
2023/05/07 09:34:20;;;;;;;5.25;2.47;;;;;;;;;;5039369;28;20500;-75
2023/05/07 09:36:45;;;;;;;4.03;2.20;;;;;;;;;;5042750;28;20037;-74
2023/05/07 09:39:11;;;;;;;4.50;2.25;;;;;;;;;;5055442;28;20393;-75
2023/05/07 09:41:44;;;;;;;5.95;2.65;;;;;;;;;;5042288;28;20029;-79
2023/05/07 09:44:09;;;;;;;4.10;2.35;;;;;;;;;;5035940;28;20057;-75
2023/05/07 09:46:36;;;;;;;7.80;2.42;;;;;;;;;;5039322;28;20068;-75
2023/05/07 09:49:02;;;;;;;6.20;2.10;;;;;;;;;;5023293;28;20033;-75
2023/05/07 09:51:41;;;;;;;7.72;2.13;;;;;;;;;;5035108;28;20040;-74
2023/05/07 09:54:07;;;;;;;7.55;2.00;;;;;;;;;;5038616;28;20052;-75
2023/05/07 09:56:33;;;;;;;4.53;1.88;;;;;;;;;;5038189;28;20057;-74
2023/05/07 09:59:00;;;;;;;5.80;1.85;;;;;;;;;;5027729;28;20855;-75
2023/05/07 10:01:26;;;;;;;5.72;1.98;;;;;;;;;;5049673;28;20046;-73
2023/05/07 10:03:53;;;;;;;4.40;2.00;;;;;;;;;;5035039;28;20144;-74
2023/05/07 10:06:20;;;;;;;4.95;2.17;;;;;;;;;;5054820;28;20042;-75
2023/05/07 10:08:46;;;;;;;4.13;2.15;;;;;;;;;;5030036;28;20072;-75
2023/05/07 10:11:11;;;;;;;4.75;2.10;;;;;;;;;;5035286;28;20065;-76
2023/05/07 10:13:37;;;;;;;4.00;1.88;;;;;;;;;;5038763;28;20493;-76
2023/05/07 10:16:06;;;;;;;5.60;2.55;;;;;;;;;;5044543;28;20045;-75
2023/05/07 10:18:32;;;;;;;8.27;2.33;;;;;;;;;;5036157;28;20036;-76
2023/05/07 10:21:08;;;;;;;5.97;2.55;;;;;;;;;;5038716;28;20033;-75
2023/05/07 10:23:33;;;;;;;6.60;2.03;;;;;;;;;;5039556;28;20061;-75
2023/05/07 10:26:04;;;;;;;10.18;1.90;;;;;;;;;;5031985;28;20060;-75
2023/05/07 10:28:34;;;;;;;6.38;1.98;;;;;;;;;;5032638;28;20041;-76
2023/05/07 10:31:30;;;;;;;5.32;2.08;;;;;;;;;;5031153;28;20120;-76
2023/05/07 10:33:56;;;;;;;4.32;1.92;;;;;;;;;;5036602;28;20042;-75
2023/05/07 10:36:22;;;;;;;6.68;2.42;;;;;;;;;;5046511;28;20032;-75
2023/05/07 10:38:48;;;;;;;3.95;1.80;;;;;;;;;;5028758;28;20495;-75
2023/05/07 10:41:15;;;;;;;9.18;2.78;;;;;;;;;;5033884;28;20037;-76
2023/05/07 10:43:41;;;;;;;5.90;2.53;;;;;;;;;;5030758;28;20048;-75
2023/05/07 10:46:18;;;;;;;3.85;1.50;;;;;;;;;;5030461;28;20056;-77
2023/05/07 10:49:08;;;;;;;3.97;1.60;;;;;;;;;;5005374;28;20064;-76
2023/05/07 10:51:34;;;;;;;5.50;2.17;;;;;;;;;;5033091;28;20140;-75
2023/05/07 10:54:12;;;;;;;5.95;1.63;;;;;;;;;;5030240;28;20045;-75
2023/05/07 10:56:38;;;;;;;6.18;1.90;;;;;;;;;;5036402;28;20067;-80
2023/05/07 10:59:30;;;;;;;5.97;1.90;;;;;;;;;;5025092;28;20052;-78
2023/05/07 11:01:57;;;;;;;7.22;2.00;;;;;;;;;;5037572;28;20037;-75
2023/05/07 11:04:27;;;;;;;8.07;2.28;;;;;;;;;;5046289;28;20033;-74
2023/05/07 11:07:12;;;;;;;6.25;1.98;;;;;;;;;;5035511;28;20034;-74
2023/05/07 11:09:53;;;;;;;4.90;2.35;;;;;;;;;;5035638;28;20041;-74
2023/05/07 11:12:43;;;;;;;8.18;2.60;;;;;;;;;;5037037;28;20049;-74
2023/05/07 11:15:09;;;;;;;7.68;2.75;;;;;;;;;;5037753;28;20041;-76
2023/05/07 11:17:52;;;;;;;6.15;2.53;;;;;;;;;;5026771;28;20045;-75
2023/05/07 11:20:18;;;;;;;5.63;1.80;;;;;;;;;;5032209;28;20048;-75
2023/05/07 11:22:43;;;;;;;9.15;2.60;;;;;;;;;;5032345;28;20657;-75
2023/05/07 11:25:08;;;;;;;7.15;2.72;;;;;;;;;;5032788;28;20091;-75
2023/05/07 11:27:34;;;;;;;6.30;2.15;;;;;;;;;;5026107;28;20078;-75
2023/05/07 11:30:03;;;;;;;4.55;1.80;;;;;;;;;;5036980;28;20478;-76
2023/05/07 11:32:30;;;;;;;5.88;1.80;;;;;;;;;;5029463;28;20037;-76
2023/05/07 11:34:57;;;;;;;5.68;1.90;;;;;;;;;;5009100;28;20120;-74
2023/05/07 11:37:24;;;;;;;8.23;1.83;;;;;;;;;;5037854;28;20124;-74
2023/05/07 11:39:54;;;;;;;8.20;2.20;;;;;;;;;;5058513;28;20040;-75
2023/05/07 11:42:33;;;;;;;8.40;2.40;;;;;;;;;;5038000;28;20055;-75
2023/05/07 11:44:58;;;;;;;6.15;2.22;;;;;;;;;;5032428;28;20037;-75
2023/05/07 11:47:25;;;;;;;5.55;1.80;;;;;;;;;;5031233;28;20033;-75
2023/05/07 11:49:54;;;;;;;5.43;1.90;;;;;;;;;;5035739;28;20033;-75
2023/05/07 11:52:21;;;;;;;3.95;1.58;;;;;;;;;;5036257;28;20130;-74
2023/05/07 11:54:54;;;;;;;5.32;2.50;;;;;;;;;;5032687;28;20038;-76
2023/05/07 11:57:20;;;;;;;9.10;2.08;;;;;;;;;;5036094;28;20049;-74
2023/05/07 11:59:46;;;;;;;7.03;1.73;;;;;;;;;;5045781;28;20033;-76
2023/05/07 12:02:14;;;;;;;5.97;2.10;;;;;;;;;;5032530;28;20472;-75
2023/05/07 12:04:39;;;;;;;6.05;1.92;;;;;;;;;;5064867;28;20037;-77
2023/05/07 12:07:05;;;;;;;9.85;2.17;;;;;;;;;;5049641;28;20029;-75
2023/05/07 12:09:33;;;;;;;7.75;1.90;;;;;;;;;;5049889;28;20536;-74
2023/05/07 12:12:03;;;;;;;6.10;2.28;;;;;;;;;;5040123;28;20030;-74
2023/05/07 12:14:29;;;;;;;4.93;1.95;;;;;;;;;;5030786;28;20504;-74
2023/05/07 12:16:54;;;;;;;3.78;1.55;;;;;;;;;;5040080;28;20033;-75
2023/05/07 12:19:20;;;;;;;3.58;1.60;;;;;;;;;;5040545;28;20053;-75
2023/05/07 12:21:45;;;;;;;7.13;1.75;;;;;;;;;;5033637;28;20470;-75
2023/05/07 12:24:11;;;;;;;4.45;1.80;;;;;;;;;;5037691;28;20041;-76
2023/05/07 12:26:40;;;;;;;3.25;1.40;;;;;;;;;;5029913;28;20041;-75
2023/05/07 12:29:06;;;;;;;5.20;1.88;;;;;;;;;;5041471;28;20064;-75
2023/05/07 12:31:31;;;;;;;4.10;1.70;;;;;;;;;;5038748;28;20393;-76
2023/05/07 12:33:56;;;;;;;3.45;1.27;;;;;;;;;;5042775;28;20037;-75
2023/05/07 12:36:22;;;;;;;6.28;1.55;;;;;;;;;;5044336;28;20036;-76
2023/05/07 12:38:49;;;;;;;2.50;1.38;;;;;;;;;;5039258;28;20036;-74
2023/05/07 12:41:15;;;;;;;8.63;1.70;;;;;;;;;;5044974;28;20396;-76
2023/05/07 12:43:44;;;;;;;4.07;1.63;;;;;;;;;;5037484;28;20033;-75
2023/05/07 12:46:09;;;;;;;2.90;1.38;;;;;;;;;;5042793;28;20508;-74
2023/05/07 12:48:37;;;;;;;3.95;1.50;;;;;;;;;;5048766;28;20045;-75
2023/05/07 12:51:03;;;;;;;5.50;1.40;;;;;;;;;;5031368;28;20429;-77
2023/05/07 12:53:29;;;;;;;6.07;1.77;;;;;;;;;;5044987;28;20041;-76
2023/05/07 12:55:56;;;;;;;5.97;1.80;;;;;;;;;;5045677;28;20489;-75
2023/05/07 12:58:26;;;;;;;4.40;1.70;;;;;;;;;;5043869;28;20033;-76
2023/05/07 13:00:52;;;;;;;4.57;1.73;;;;;;;;;;5035304;28;20037;-75
2023/05/07 13:03:25;;;;;;;5.70;3.10;;;;;;;;;;5031333;28;20030;-75
2023/05/07 13:05:51;;;;;;;5.63;2.10;;;;;;;;;;5034689;28;20029;-75
2023/05/07 13:08:30;;;;;;;7.53;2.53;;;;;;;;;;5044001;28;20037;-75
2023/05/07 13:10:58;;;;;;;8.02;2.55;;;;;;;;;;5030337;28;20088;-75
2023/05/07 13:13:23;;;;;;;4.43;2.08;;;;;;;;;;5036650;28;20111;-75
2023/05/07 13:15:48;;;;;;;5.82;3.03;;;;;;;;;;5044055;28;20224;-75
2023/05/07 13:18:14;;;;;;;5.43;3.08;;;;;;;;;;5035476;28;20056;-75
2023/05/07 13:20:40;;;;;;;10.80;4.45;;;;;;;;;;5037445;28;20087;-75
2023/05/07 13:23:06;;;;;;;9.15;3.80;;;;;;;;;;5046186;28;20041;-76
2023/05/07 13:25:31;;;;;;;9.38;4.43;;;;;;;;;;5049273;28;20035;-75
2023/05/07 13:27:57;;;;;;;9.60;4.35;;;;;;;;;;5042316;28;20040;-76
2023/05/07 13:30:22;;;;;;;12.25;3.95;;;;;;;;;;5057480;28;20084;-75
2023/05/07 13:32:48;;;;;;;7.13;4.03;;;;;;;;;;5042158;28;20033;-75
2023/05/07 13:35:14;;;;;;;6.00;2.42;;;;;;;;;;5048218;28;20045;-75
2023/05/07 13:37:39;;;;;;;5.82;2.45;;;;;;;;;;5038766;28;20076;-75
2023/05/07 13:40:07;;;;;;;3.38;1.52;;;;;;;;;;5035605;28;20034;-75
2023/05/07 13:42:33;;;;;;;3.35;1.50;;;;;;;;;;5045091;28;20049;-74
2023/05/07 13:44:58;;;;;;;3.85;1.65;;;;;;;;;;5046303;28;20408;-74
2023/05/07 13:47:23;;;;;;;4.30;1.70;;;;;;;;;;5040744;28;20051;-75
2023/05/07 13:49:52;;;;;;;5.45;1.98;;;;;;;;;;5040229;28;20037;-75
2023/05/07 13:52:18;;;;;;;6.65;1.73;;;;;;;;;;5041663;28;20044;-77
2023/05/07 13:54:44;;;;;;;5.53;1.70;;;;;;;;;;5044509;28;20040;-75
2023/05/07 13:57:09;;;;;;;6.00;1.73;;;;;;;;;;5053566;28;20095;-75
2023/05/07 13:59:35;;;;;;;6.95;1.63;;;;;;;;;;5038625;28;20112;-75
2023/05/07 14:02:00;;;;;;;5.85;1.75;;;;;;;;;;5035772;28;20107;-75
2023/05/07 14:04:26;;;;;;;6.47;2.03;;;;;;;;;;5049075;28;20475;-74
2023/05/07 14:06:51;;;;;;;7.18;2.15;;;;;;;;;;5045888;28;20041;-75
2023/05/07 14:09:16;;;;;;;6.30;2.28;;;;;;;;;;5045121;28;20033;-75
2023/05/07 14:11:42;;;;;;;6.78;1.83;;;;;;;;;;5061095;28;20057;-75
2023/05/07 14:14:10;;;;;;;5.40;1.92;;;;;;;;;;5041297;28;20092;-76
2023/05/07 14:16:35;;;;;;;8.57;2.00;;;;;;;;;;5040998;28;20035;-75
2023/05/07 14:19:01;;;;;;;6.65;2.25;;;;;;;;;;5038199;28;20470;-75
2023/05/07 14:21:26;;;;;;;6.30;2.08;;;;;;;;;;5037047;28;20046;-75
2023/05/07 14:23:52;;;;;;;7.47;2.60;;;;;;;;;;5037690;28;20036;-75
2023/05/07 14:26:17;;;;;;;6.25;2.88;;;;;;;;;;5042497;28;20034;-75
2023/05/07 14:28:45;;;;;;;7.72;3.30;;;;;;;;;;5041711;28;20507;-76
2023/05/07 14:31:11;;;;;;;6.43;3.92;;;;;;;;;;5040940;28;20033;-75
2023/05/07 14:33:37;;;;;;;9.02;4.90;;;;;;;;;;5035021;28;20055;-75